createdAt,value
2023-04-15T00:00:01.332Z,95.94
2023-04-15T00:02:28.597Z,95.95
2023-04-15T00:04:55.174Z,95.75
2023-04-15T00:07:21.476Z,95.94
2023-04-15T00:09:47.733Z,95.90
2023-04-15T00:12:14.019Z,95.64
2023-04-15T00:14:40.353Z,95.77
2023-04-15T00:17:06.622Z,95.52
2023-04-15T00:19:32.881Z,95.75
2023-04-15T00:21:59.377Z,95.73
2023-04-15T00:24:25.739Z,95.73
2023-04-15T00:26:52.067Z,96.15
2023-04-15T00:29:18.481Z,96.42
2023-04-15T00:31:44.827Z,96.69
2023-04-15T00:34:11.686Z,96.23
2023-04-15T00:36:37.953Z,96.42
2023-04-15T00:39:04.237Z,96.24
2023-04-15T00:41:30.510Z,96.56
2023-04-15T00:43:56.753Z,96.38
2023-04-15T00:46:23.388Z,96.75
2023-04-15T00:48:50.634Z,96.94
2023-04-15T00:51:16.929Z,97.03
2023-04-15T00:53:43.215Z,97.12
2023-04-15T00:56:09.614Z,97.18
2023-04-15T00:58:36.140Z,97.13
2023-04-15T01:01:03.214Z,97.28
2023-04-15T01:03:30.004Z,97.29
2023-04-15T01:05:56.518Z,97.43
2023-04-15T01:08:23.532Z,97.34
2023-04-15T01:10:50.170Z,97.47
2023-04-15T01:13:16.489Z,97.60
2023-04-15T01:15:43.177Z,97.66
2023-04-15T01:18:09.548Z,97.89
2023-04-15T01:20:38.094Z,97.90
2023-04-15T01:23:04.493Z,98.17
2023-04-15T01:25:34.244Z,98.34
2023-04-15T01:28:00.790Z,98.44
2023-04-15T01:30:27.434Z,98.43
2023-04-15T01:32:54.130Z,98.52
2023-04-15T01:35:22.100Z,98.61
2023-04-15T01:37:51.259Z,98.45
2023-04-15T01:40:17.800Z,98.56
2023-04-15T01:42:44.181Z,98.52
2023-04-15T01:45:10.631Z,98.17
2023-04-15T01:47:37.769Z,98.29
2023-04-15T01:50:04.691Z,98.49
2023-04-15T01:52:31.072Z,98.23
2023-04-15T01:54:57.406Z,98.01
2023-04-15T01:57:23.762Z,98.12
2023-04-15T01:59:51.291Z,98.24
2023-04-15T02:02:17.634Z,98.53
2023-04-15T02:04:44.066Z,98.34
2023-04-15T02:07:10.314Z,98.53
2023-04-15T02:09:36.688Z,98.75
2023-04-15T02:12:02.995Z,98.28
2023-04-15T02:14:29.246Z,98.51
2023-04-15T02:16:55.699Z,98.31
2023-04-15T02:19:21.997Z,97.97
2023-04-15T02:21:48.246Z,97.84
2023-04-15T02:24:17.326Z,97.92
2023-04-15T02:26:43.637Z,98.25
2023-04-15T02:29:09.893Z,98.08
2023-04-15T02:31:36.207Z,98.27
2023-04-15T02:34:02.564Z,98.48
2023-04-15T02:36:28.797Z,98.53
2023-04-15T02:38:55.219Z,98.62
2023-04-15T02:41:22.154Z,98.53
2023-04-15T02:43:48.397Z,98.45
2023-04-15T02:46:14.910Z,98.36
2023-04-15T02:48:41.275Z,98.24
2023-04-15T02:51:18.667Z,98.25
2023-04-15T02:53:45.614Z,98.21
2023-04-15T02:56:12.050Z,98.44
2023-04-15T02:58:38.972Z,98.71
2023-04-15T03:01:05.346Z,98.47
2023-04-15T03:03:31.833Z,98.20
2023-04-15T03:05:58.253Z,98.15
2023-04-15T03:08:24.614Z,98.05
2023-04-15T03:10:51.021Z,97.94
2023-04-15T03:13:17.460Z,98.19
2023-04-15T03:15:46.100Z,98.54
2023-04-15T03:18:12.517Z,98.41
2023-04-15T03:20:40.078Z,98.70
2023-04-15T03:23:06.685Z,99.01
2023-04-15T03:25:33.038Z,98.94
2023-04-15T03:28:00.041Z,99.11
2023-04-15T03:30:26.387Z,98.85
2023-04-15T03:32:52.744Z,98.83
2023-04-15T03:35:19.213Z,98.70
2023-04-15T03:37:45.485Z,98.58
2023-04-15T03:40:11.983Z,98.60
2023-04-15T03:42:38.263Z,98.73
2023-04-15T03:45:04.979Z,98.74
2023-04-15T03:47:31.223Z,98.90
2023-04-15T03:49:57.551Z,99.13
2023-04-15T03:52:23.771Z,99.40
2023-04-15T03:54:50.031Z,99.26
2023-04-15T03:57:16.247Z,99.47
2023-04-15T03:59:42.511Z,99.37
2023-04-15T04:02:08.898Z,99.34
2023-04-15T04:04:35.319Z,99.48
2023-04-15T04:07:01.659Z,99.70
2023-04-15T04:09:27.973Z,99.78
2023-04-15T04:11:54.300Z,99.75
2023-04-15T04:14:20.767Z,99.23
2023-04-15T04:16:46.984Z,98.56
2023-04-15T04:19:13.335Z,98.58
2023-04-15T04:21:39.667Z,98.40
2023-04-15T04:24:05.907Z,98.79
2023-04-15T04:26:32.130Z,99.05
2023-04-15T04:28:58.544Z,98.86
2023-04-15T04:31:25.120Z,98.63
2023-04-15T04:33:51.379Z,98.61
2023-04-15T04:36:17.742Z,98.83
2023-04-15T04:38:44.036Z,99.08
2023-04-15T04:41:10.325Z,99.01
2023-04-15T04:43:36.621Z,98.82
2023-04-15T04:46:02.942Z,98.88
2023-04-15T04:48:29.239Z,98.21
2023-04-15T04:50:55.520Z,97.96
2023-04-15T04:53:21.781Z,98.00
2023-04-15T04:55:48.075Z,97.96
2023-04-15T04:58:14.337Z,97.98
2023-04-15T05:00:40.661Z,97.60
2023-04-15T05:03:07.316Z,97.79
2023-04-15T05:05:33.800Z,97.88
2023-04-15T05:08:00.152Z,98.00
2023-04-15T05:10:26.501Z,97.94
2023-04-15T05:12:52.793Z,97.49
2023-04-15T05:15:19.073Z,97.89
2023-04-15T05:17:45.365Z,97.36
2023-04-15T05:20:11.922Z,97.43
2023-04-15T05:22:38.335Z,97.44
2023-04-15T05:25:04.809Z,96.96
2023-04-15T05:27:31.190Z,96.95
2023-04-15T05:29:57.588Z,96.49
2023-04-15T05:32:23.908Z,96.26
2023-04-15T05:34:50.288Z,96.72
2023-04-15T05:37:16.529Z,96.22
2023-04-15T05:39:42.884Z,95.81
2023-04-15T05:42:09.175Z,95.89
2023-04-15T05:44:35.567Z,95.63
2023-04-15T05:47:01.848Z,94.97
2023-04-15T05:49:28.464Z,94.92
2023-04-15T05:51:54.943Z,94.92
2023-04-15T05:54:21.314Z,94.52
2023-04-15T05:56:47.864Z,93.86
2023-04-15T05:59:14.274Z,93.35
2023-04-15T06:01:40.527Z,93.35
2023-04-15T06:04:06.865Z,93.11
2023-04-15T06:06:33.185Z,92.93
2023-04-15T06:08:59.870Z,92.24
2023-04-15T06:11:26.511Z,91.11
2023-04-15T06:13:53.186Z,90.60
2023-04-15T06:16:19.832Z,89.97
2023-04-15T06:18:46.221Z,88.87
2023-04-15T06:21:12.520Z,88.06
2023-04-15T06:23:38.827Z,87.00
2023-04-15T06:26:05.095Z,86.35
2023-04-15T06:28:31.410Z,85.99
2023-04-15T06:31:00.860Z,85.06
2023-04-15T06:33:27.259Z,84.27
2023-04-15T06:35:53.594Z,83.36
2023-04-15T06:38:20.999Z,83.04
2023-04-15T06:40:48.459Z,82.60
2023-04-15T06:46:09.814Z,81.86
2023-04-15T06:48:36.479Z,81.71
2023-04-15T06:51:03.558Z,81.23
2023-04-15T06:53:32.133Z,80.24
2023-04-15T06:56:05.242Z,79.56
2023-04-15T06:58:35.206Z,78.97
2023-04-15T07:01:02.143Z,78.52
2023-04-15T07:03:33.180Z,77.05
2023-04-15T07:06:00.995Z,76.23
2023-04-15T07:08:41.785Z,76.59
2023-04-15T07:11:19.072Z,76.95
2023-04-15T07:13:47.150Z,76.80
2023-04-15T07:16:18.553Z,76.67
2023-04-15T07:18:45.078Z,76.10
2023-04-15T07:21:17.254Z,75.37
2023-04-15T07:23:44.080Z,75.21
2023-04-15T07:26:10.516Z,75.35
2023-04-15T07:28:36.802Z,75.27
2023-04-15T07:31:03.528Z,75.42
2023-04-15T07:33:29.943Z,75.09
2023-04-15T07:35:56.209Z,74.75
2023-04-15T07:38:22.566Z,73.49
2023-04-15T07:40:52.620Z,72.95
2023-04-15T07:43:20.559Z,72.81
2023-04-15T07:45:46.990Z,72.45
2023-04-15T07:48:13.411Z,72.25
2023-04-15T07:50:39.869Z,71.89
2023-04-15T07:53:06.422Z,71.44
2023-04-15T07:55:32.793Z,71.25
2023-04-15T07:57:59.156Z,71.13
2023-04-15T08:00:25.521Z,71.13
2023-04-15T08:02:52.147Z,70.93
2023-04-15T08:05:19.123Z,70.99
2023-04-15T08:07:45.575Z,71.12
2023-04-15T08:10:12.004Z,71.05
2023-04-15T08:12:38.472Z,70.88
2023-04-15T08:15:05.132Z,70.79
2023-04-15T08:17:31.530Z,70.32
2023-04-15T08:19:59.440Z,70.06
2023-04-15T08:22:25.981Z,69.81
2023-04-15T08:24:52.261Z,70.00
2023-04-15T08:27:18.573Z,70.04
2023-04-15T08:29:44.845Z,70.06
2023-04-15T08:32:11.249Z,70.03
2023-04-15T08:34:37.552Z,70.13
2023-04-15T08:37:03.861Z,70.26
2023-04-15T08:39:30.301Z,69.84
2023-04-15T08:42:03.697Z,69.42
2023-04-15T08:44:32.586Z,69.42
2023-04-15T08:47:02.497Z,69.97
2023-04-15T08:49:29.407Z,69.99
2023-04-15T08:51:57.867Z,70.17
2023-04-15T08:54:24.709Z,70.18
2023-04-15T08:56:51.971Z,70.19
2023-04-15T08:59:19.129Z,70.29
2023-04-15T09:01:45.622Z,70.06
2023-04-15T09:04:12.079Z,70.19
2023-04-15T09:06:39.032Z,70.40
2023-04-15T09:09:05.354Z,69.92
2023-04-15T09:11:40.069Z,69.86
2023-04-15T09:14:06.625Z,69.61
2023-04-15T09:16:53.466Z,69.10
2023-04-15T09:19:20.682Z,68.61
2023-04-15T09:21:47.298Z,69.06
2023-04-15T09:24:13.644Z,68.94
2023-04-15T09:26:39.975Z,68.49
2023-04-15T09:29:07.671Z,68.48
2023-04-15T09:31:34.692Z,68.49
2023-04-15T09:34:01.567Z,68.78
2023-04-15T09:36:28.040Z,68.38
2023-04-15T09:38:55.960Z,68.29
2023-04-15T09:41:22.592Z,67.55
2023-04-15T09:43:48.895Z,67.40
2023-04-15T09:46:15.296Z,66.88
2023-04-15T09:48:41.969Z,66.59
2023-04-15T09:51:08.356Z,66.07
2023-04-15T09:53:35.579Z,65.95
2023-04-15T09:56:02.093Z,65.88
2023-04-15T09:58:32.810Z,65.28
2023-04-15T10:00:59.845Z,64.38
2023-04-15T10:03:27.598Z,63.77
2023-04-15T10:05:55.352Z,62.93
2023-04-15T10:08:22.984Z,63.02
2023-04-15T10:10:49.276Z,62.79
2023-04-15T10:13:17.040Z,61.89
2023-04-15T10:15:44.100Z,61.31
2023-04-15T10:18:11.004Z,60.61
2023-04-15T10:20:38.165Z,59.94
2023-04-15T10:23:05.920Z,59.15
2023-04-15T10:25:33.504Z,58.41
2023-04-15T10:27:59.976Z,58.30
2023-04-15T10:30:26.783Z,57.35
2023-04-15T10:32:53.726Z,56.26
2023-04-15T10:35:20.742Z,56.05
2023-04-15T10:37:47.261Z,56.17
2023-04-15T10:40:23.540Z,54.76
2023-04-15T10:42:49.921Z,53.56
2023-04-15T10:45:16.414Z,53.09
2023-04-15T10:47:42.918Z,52.71
2023-04-15T10:50:10.229Z,52.91
2023-04-15T10:52:39.964Z,51.95
2023-04-15T10:55:12.230Z,51.47
2023-04-15T10:57:39.847Z,51.43
2023-04-15T11:00:10.271Z,50.95
2023-04-15T11:02:53.843Z,49.99
2023-04-15T11:05:21.369Z,49.45
2023-04-15T11:07:49.337Z,48.98
2023-04-15T11:10:24.797Z,48.27
2023-04-15T11:12:52.329Z,47.78
2023-04-15T11:15:28.119Z,47.09
2023-04-15T11:17:54.888Z,46.54
2023-04-15T11:20:21.153Z,45.61
2023-04-15T11:22:51.224Z,45.79
2023-04-15T11:25:24.060Z,45.72
2023-04-15T11:27:50.360Z,45.00
2023-04-15T11:30:20.636Z,44.39
2023-04-15T11:32:47.643Z,43.74
2023-04-15T11:35:13.982Z,43.13
2023-04-15T11:37:40.384Z,42.23
2023-04-15T11:40:08.192Z,41.28
2023-04-15T11:42:48.563Z,40.22
2023-04-15T11:45:16.163Z,39.45
2023-04-15T11:47:42.522Z,39.03
2023-04-15T11:50:21.956Z,38.17
2023-04-15T11:52:58.720Z,37.54
2023-04-15T11:55:25.441Z,37.57
2023-04-15T11:58:10.799Z,37.18
2023-04-15T12:00:37.834Z,37.66
2023-04-15T12:03:13.882Z,37.12
2023-04-15T12:05:59.057Z,37.46
2023-04-15T12:08:25.463Z,37.58
2023-04-15T12:10:58.148Z,37.07
2023-04-15T12:13:26.954Z,36.85
2023-04-15T12:15:54.925Z,37.26
2023-04-15T12:18:21.292Z,38.36
2023-04-15T12:20:47.658Z,38.53
2023-04-15T12:23:18.483Z,39.32
2023-04-15T12:25:50.593Z,40.19
2023-04-15T12:28:16.872Z,40.72
2023-04-15T12:30:50.163Z,41.34
2023-04-15T12:33:17.607Z,41.17
2023-04-15T12:35:43.920Z,41.70
2023-04-15T12:38:10.273Z,41.80
2023-04-15T12:40:36.722Z,42.32
2023-04-15T12:43:03.137Z,43.03
2023-04-15T12:45:30.028Z,43.70
2023-04-15T12:47:56.416Z,44.29
2023-04-15T12:50:22.721Z,44.76
2023-04-15T12:52:49.107Z,45.23
2023-04-15T12:55:16.073Z,45.25
2023-04-15T12:57:42.459Z,45.51
2023-04-15T13:00:09.128Z,45.82
2023-04-15T13:02:35.814Z,45.98
2023-04-15T13:05:02.245Z,46.76
2023-04-15T13:07:28.647Z,47.66
2023-04-15T13:09:54.922Z,47.45
2023-04-15T13:12:21.214Z,47.61
2023-04-15T13:14:47.503Z,48.07
2023-04-15T13:17:13.836Z,48.56
2023-04-15T13:19:40.091Z,48.62
2023-04-15T13:22:06.946Z,48.12
2023-04-15T13:24:33.356Z,48.33
2023-04-15T13:26:59.576Z,47.62
2023-04-15T13:29:25.876Z,48.10
2023-04-15T13:31:52.397Z,47.68
2023-04-15T13:34:18.753Z,45.79
2023-04-15T13:36:45.167Z,43.29
2023-04-15T13:39:11.541Z,40.66
2023-04-15T13:41:37.766Z,37.52
2023-04-15T13:44:04.408Z,35.20
2023-04-15T13:46:30.855Z,33.95
2023-04-15T13:48:57.090Z,32.97
2023-04-15T13:51:23.462Z,33.37
2023-04-15T13:53:49.779Z,33.45
2023-04-15T13:56:16.115Z,33.70
2023-04-15T13:58:42.532Z,34.29
2023-04-15T14:01:09.113Z,34.92
2023-04-15T14:03:35.548Z,35.30
2023-04-15T14:06:02.315Z,36.20
2023-04-15T14:08:29.715Z,36.37
2023-04-15T14:10:55.986Z,36.76
2023-04-15T14:13:25.170Z,36.91
2023-04-15T14:15:51.845Z,36.74
2023-04-15T14:18:18.173Z,36.60
2023-04-15T14:20:44.813Z,35.55
2023-04-15T14:23:11.531Z,33.59
2023-04-15T14:25:37.823Z,32.19
2023-04-15T14:28:04.448Z,31.72
2023-04-15T14:30:31.127Z,30.99
2023-04-15T14:32:57.470Z,30.08
2023-04-15T14:35:23.872Z,31.04
2023-04-15T14:37:50.957Z,31.36
2023-04-15T14:40:17.372Z,31.19
2023-04-15T14:42:43.685Z,30.82
2023-04-15T14:45:11.081Z,31.45
2023-04-15T14:47:37.452Z,32.87
2023-04-15T14:50:03.983Z,33.50
2023-04-15T14:52:31.150Z,34.63
2023-04-15T14:54:57.466Z,35.64
2023-04-15T14:57:23.938Z,36.39
2023-04-15T14:59:50.332Z,37.84
2023-04-15T15:02:31.647Z,39.10
2023-04-15T15:05:04.032Z,40.09
2023-04-15T15:07:30.433Z,40.50
2023-04-15T15:09:56.705Z,41.20
2023-04-15T15:12:23.006Z,41.91
2023-04-15T15:14:49.433Z,42.38
2023-04-15T15:17:15.877Z,42.93
2023-04-15T15:19:42.485Z,43.22
2023-04-15T15:22:08.743Z,42.83
2023-04-15T15:24:34.995Z,42.42
2023-04-15T15:27:01.757Z,41.88
2023-04-15T15:29:28.084Z,40.15
2023-04-15T15:31:54.448Z,38.78
2023-04-15T15:34:21.106Z,38.37
2023-04-15T15:36:47.761Z,39.15
2023-04-15T15:39:14.069Z,39.91
2023-04-15T15:41:40.744Z,40.79
2023-04-15T15:44:07.023Z,41.08
2023-04-15T15:46:33.321Z,41.50
2023-04-15T15:49:01.535Z,42.27
2023-04-15T15:51:27.887Z,43.44
2023-04-15T15:53:54.161Z,44.10
2023-04-15T15:56:20.720Z,44.69
2023-04-15T15:58:47.081Z,45.22
2023-04-15T16:01:13.460Z,45.48
2023-04-15T16:03:40.001Z,45.75
2023-04-15T16:06:06.369Z,45.97
2023-04-15T16:08:32.637Z,46.11
2023-04-15T16:10:59.336Z,46.21
2023-04-15T16:13:25.762Z,46.59
2023-04-15T16:15:52.060Z,46.79
2023-04-15T16:18:18.530Z,47.41
2023-04-15T16:20:44.944Z,48.10
2023-04-15T16:23:12.750Z,48.35
2023-04-15T16:25:40.389Z,48.77
2023-04-15T16:28:18.496Z,49.07
2023-04-15T16:30:49.417Z,49.74
2023-04-15T16:33:15.749Z,50.05
2023-04-15T16:35:42.012Z,50.52
2023-04-15T16:38:08.488Z,50.90
2023-04-15T16:40:36.057Z,51.30
2023-04-15T16:43:02.777Z,51.88
2023-04-15T16:45:29.086Z,52.52
2023-04-15T16:47:55.420Z,52.96
2023-04-15T16:50:22.006Z,53.32
2023-04-15T16:56:16.876Z,54.31
2023-04-15T16:58:43.580Z,54.69
2023-04-15T17:01:09.990Z,55.12
2023-04-15T17:03:36.706Z,55.45
2023-04-15T17:06:03.815Z,55.76
2023-04-15T17:08:30.368Z,56.06
2023-04-15T17:11:00.225Z,56.36
2023-04-15T17:13:26.645Z,56.57
2023-04-15T17:15:55.624Z,56.85
2023-04-15T17:18:24.050Z,56.68
2023-04-15T17:21:03.352Z,56.36
2023-04-15T17:23:29.866Z,56.15
2023-04-15T17:25:57.375Z,56.90
2023-04-15T17:28:24.106Z,58.58
2023-04-15T17:30:53.013Z,60.32
2023-04-15T18:01:59.507Z,74.60
2023-04-15T18:04:26.896Z,75.38
2023-04-15T18:06:53.889Z,76.10
2023-04-15T18:09:20.853Z,76.03
2023-04-15T18:11:47.199Z,76.20
2023-04-15T18:14:33.033Z,76.64
2023-04-15T18:17:10.587Z,77.41
2023-04-15T18:19:36.946Z,77.69
2023-04-15T18:22:04.878Z,78.21
2023-04-15T18:24:32.130Z,78.50
2023-04-15T18:26:58.470Z,79.21
2023-04-15T18:29:27.290Z,78.98
2023-04-15T18:31:54.475Z,79.47
2023-04-15T18:34:23.861Z,79.72
2023-04-15T18:36:50.274Z,80.33
2023-04-15T18:39:17.074Z,80.60
2023-04-15T18:41:43.743Z,80.56
2023-04-15T18:44:10.232Z,80.50
2023-04-15T18:46:37.017Z,80.96
2023-04-15T18:49:03.988Z,81.10
2023-04-15T18:51:30.747Z,81.57
2023-04-15T18:53:57.771Z,81.89
2023-04-15T18:56:24.748Z,82.51
2023-04-15T18:59:28.559Z,82.71
2023-04-15T19:01:44.746Z,82.98
2023-04-15T19:04:11.937Z,82.85
2023-04-15T19:06:56.250Z,83.03
2023-04-15T19:09:22.861Z,83.34
2023-04-15T19:11:49.254Z,83.35
2023-04-15T19:14:16.453Z,83.43
2023-04-15T19:19:32.072Z,84.88
2023-04-15T19:22:02.557Z,85.48
2023-04-15T19:24:35.667Z,85.35
2023-04-15T19:27:02.181Z,85.36
2023-04-15T19:29:29.046Z,85.22
2023-04-15T19:32:01.452Z,85.34
2023-04-15T19:34:27.970Z,85.60
2023-04-15T19:36:54.480Z,86.23
2023-04-15T19:39:21.296Z,86.00
2023-04-15T19:41:48.104Z,85.95
2023-04-15T19:44:16.031Z,85.83
2023-04-15T19:46:43.586Z,85.92
2023-04-15T19:49:10.232Z,86.42
2023-04-15T19:51:37.675Z,86.85
2023-04-15T19:54:04.323Z,86.87
2023-04-15T19:56:32.843Z,87.51
2023-04-15T19:59:01.046Z,87.31
2023-04-15T20:01:27.548Z,87.42
2023-04-15T20:03:54.184Z,87.60
2023-04-15T20:06:21.940Z,87.68
2023-04-15T20:08:48.306Z,87.68
2023-04-15T20:11:15.179Z,87.35
2023-04-15T20:13:41.664Z,87.19
2023-04-15T20:21:59.072Z,88.27
2023-04-15T20:24:30.552Z,88.59
2023-04-15T20:26:57.140Z,88.80
2023-04-15T20:29:23.517Z,88.96
2023-04-15T20:31:49.952Z,88.80
2023-04-15T20:34:16.462Z,88.55
2023-04-15T20:36:42.920Z,88.70
2023-04-15T20:39:09.349Z,88.56
2023-04-15T20:41:36.033Z,88.53
2023-04-15T20:44:05.535Z,88.76
2023-04-15T20:46:44.423Z,88.86
2023-04-15T20:49:10.803Z,88.94
2023-04-15T20:51:40.433Z,89.18
2023-04-15T20:54:14.108Z,89.35
2023-04-15T20:56:40.858Z,89.58
2023-04-15T20:59:07.735Z,89.84
2023-04-15T21:01:35.542Z,90.13
2023-04-15T21:04:01.956Z,90.37
2023-04-15T21:06:28.413Z,90.73
2023-04-15T21:08:54.858Z,90.83
2023-04-15T21:11:40.621Z,90.55
2023-04-15T21:14:07.561Z,90.43
2023-04-15T21:16:34.060Z,90.25
2023-04-15T21:19:00.401Z,90.06
2023-04-15T21:21:26.982Z,90.10
2023-04-15T21:23:54.777Z,90.74
2023-04-15T21:26:21.036Z,91.39
2023-04-15T21:28:47.312Z,91.69
2023-04-15T21:31:13.755Z,91.63
2023-04-15T21:33:40.045Z,91.86
2023-04-15T21:36:06.572Z,92.10
2023-04-15T21:38:33.042Z,92.16
2023-04-15T21:40:59.335Z,92.38
2023-04-15T21:43:25.803Z,92.66
2023-04-15T21:46:22.418Z,92.79
2023-04-15T21:48:38.959Z,92.73
2023-04-15T21:51:05.587Z,92.39
2023-04-15T21:53:31.927Z,92.17
2023-04-15T21:55:58.250Z,92.32
2023-04-15T21:58:24.541Z,92.56
2023-04-15T22:00:51.428Z,92.40
2023-04-15T22:03:17.802Z,91.77
2023-04-15T22:05:44.721Z,91.64
2023-04-15T22:08:11.262Z,91.99
2023-04-15T22:10:37.981Z,92.56
2023-04-15T22:13:04.847Z,93.15
2023-04-15T22:15:31.110Z,94.05
2023-04-15T22:17:57.518Z,94.51
2023-04-15T22:20:23.865Z,94.48
2023-04-15T22:22:50.166Z,94.65
2023-04-15T22:25:21.029Z,93.96
2023-04-15T22:27:47.334Z,92.98
2023-04-15T22:30:13.647Z,92.73
2023-04-15T22:32:40.125Z,92.57
2023-04-15T22:35:06.759Z,92.96
2023-04-15T22:37:33.062Z,92.92
2023-04-15T22:39:59.500Z,93.08
2023-04-15T22:42:25.930Z,93.56
2023-04-15T22:44:52.226Z,93.83
2023-04-15T22:47:18.826Z,94.12
2023-04-15T22:49:45.139Z,94.14
2023-04-15T22:52:17.159Z,94.07
2023-04-15T22:54:50.036Z,94.18
2023-04-15T22:57:16.495Z,94.11
2023-04-15T22:59:42.733Z,94.28
2023-04-15T23:02:09.153Z,94.42
2023-04-15T23:04:35.613Z,94.51
2023-04-15T23:07:02.007Z,94.25
2023-04-15T23:09:28.330Z,93.89
2023-04-15T23:11:54.787Z,93.69
2023-04-15T23:14:22.343Z,93.17
2023-04-15T23:16:48.684Z,92.99
2023-04-15T23:19:14.976Z,93.22
2023-04-15T23:21:41.231Z,93.56
2023-04-15T23:24:07.555Z,94.06
2023-04-15T23:26:33.978Z,94.34
2023-04-15T23:29:00.318Z,93.26
2023-04-15T23:31:26.702Z,92.85
2023-04-15T23:33:52.996Z,92.97
2023-04-15T23:36:19.294Z,93.47
2023-04-15T23:38:45.586Z,93.49
2023-04-15T23:41:11.818Z,93.61
2023-04-15T23:43:38.121Z,93.83
2023-04-15T23:46:04.643Z,93.81
2023-04-15T23:48:30.873Z,93.35
2023-04-15T23:50:57.197Z,93.60
2023-04-15T23:53:23.481Z,93.58
2023-04-15T23:55:49.705Z,93.89
2023-04-15T23:58:15.978Z,94.18
